Time;durP1;ratioP1;P1;durP2;ratioP2;P2;SDS_P1;SDS_P2;PMS_P1;PMS_P2;Temp;Humidity;BMP_temperature;BMP_pressure;BME280_temperature;BME280_humidity;BME280_pressure;Samples;Min_cycle;Max_cycle;Signal;HPM_P1;HPM_P2
2022/04/19 00:00:07;;;;;;;;;;;17.10;65.30;;;;;;2029085;28;19915;-70
2022/04/19 00:01:05;;;;;;;;;;;17.10;65.40;;;;;;2028479;28;19911;-70
2022/04/19 00:02:04;;;;;;;;;;;17.10;65.50;;;;;;2028711;28;20278;-71
2022/04/19 00:03:02;;;;;;;;;;;17.10;65.40;;;;;;2028886;28;19944;-69
2022/04/19 00:04:01;;;;;;;;;;;17.10;65.40;;;;;;2028907;28;20404;-70
2022/04/19 00:04:59;;;;;;;;;;;17.10;65.40;;;;;;2028866;28;20394;-71
2022/04/19 00:05:58;;;;;;;;;;;17.10;65.50;;;;;;2028913;28;19908;-70
2022/04/19 00:06:56;;;;;;;;;;;17.10;65.50;;;;;;2028749;28;20356;-69
2022/04/19 00:07:55;;;;;;;;;;;17.10;65.60;;;;;;2028894;28;19911;-69
2022/04/19 00:08:53;;;;;;;;;;;17.10;65.60;;;;;;2028956;28;20268;-69
2022/04/19 00:09:52;;;;;;;;;;;17.10;65.60;;;;;;2028934;28;19904;-69
2022/04/19 00:10:50;;;;;;;;;;;17.10;65.60;;;;;;2028953;28;19962;-70
2022/04/19 00:11:48;;;;;;;;;;;17.10;65.70;;;;;;2028918;28;19960;-70
2022/04/19 00:12:47;;;;;;;;;;;17.00;65.60;;;;;;2028691;28;19908;-70
2022/04/19 00:13:45;;;;;;;;;;;17.10;65.70;;;;;;2028790;28;19930;-70
2022/04/19 00:14:44;;;;;;;;;;;17.10;65.70;;;;;;2028911;28;19904;-70
2022/04/19 00:15:42;;;;;;;;;;;17.10;65.60;;;;;;2028866;28;20321;-70
2022/04/19 00:16:41;;;;;;;;;;;17.10;65.70;;;;;;2028835;28;19919;-70
2022/04/19 00:17:39;;;;;;;;;;;17.00;65.60;;;;;;2028865;28;20370;-70
2022/04/19 00:18:37;;;;;;;;;;;17.10;66.00;;;;;;2028976;28;19988;-70
2022/04/19 00:19:36;;;;;;;;;;;17.00;65.60;;;;;;2028839;28;19947;-69
2022/04/19 00:20:35;;;;;;;;;;;17.10;65.70;;;;;;2028776;28;19976;-70
2022/04/19 00:21:33;;;;;;;;;;;17.10;65.70;;;;;;2028872;28;19904;-70
2022/04/19 00:22:32;;;;;;;;;;;17.10;65.70;;;;;;2028973;28;19908;-70
2022/04/19 00:23:30;;;;;;;;;;;17.00;65.70;;;;;;2028875;28;20286;-70
2022/04/19 00:24:29;;;;;;;;;;;17.00;65.70;;;;;;2028766;28;19939;-70
2022/04/19 00:25:28;;;;;;;;;;;17.00;65.70;;;;;;2028688;28;20096;-70
2022/04/19 00:26:26;;;;;;;;;;;17.10;65.80;;;;;;2028740;28;19904;-70
2022/04/19 00:27:25;;;;;;;;;;;17.00;65.70;;;;;;2028829;28;19905;-70
2022/04/19 00:28:23;;;;;;;;;;;17.00;65.70;;;;;;2028745;28;19957;-70
2022/04/19 00:29:22;;;;;;;;;;;17.00;65.70;;;;;;2028917;28;19939;-70
2022/04/19 00:30:20;;;;;;;;;;;17.10;65.80;;;;;;2028969;28;19908;-70
2022/04/19 00:31:19;;;;;;;;;;;17.00;65.70;;;;;;2028876;28;19904;-70
2022/04/19 00:32:17;;;;;;;;;;;17.00;65.70;;;;;;2028728;28;20469;-70
2022/04/19 00:33:16;;;;;;;;;;;17.00;65.80;;;;;;2028947;28;19999;-71
2022/04/19 00:34:16;;;;;;;;;;;17.10;65.90;;;;;;2028932;28;19995;-70
2022/04/19 00:35:14;;;;;;;;;;;17.00;65.90;;;;;;2028989;28;19904;-71
2022/04/19 00:36:13;;;;;;;;;;;17.00;65.90;;;;;;2028665;28;19911;-70
2022/04/19 00:37:13;;;;;;;;;;;17.10;66.10;;;;;;2028951;28;20098;-71
2022/04/19 00:38:11;;;;;;;;;;;17.00;65.90;;;;;;2028874;28;20339;-70
2022/04/19 00:39:10;;;;;;;;;;;17.00;65.90;;;;;;2028779;28;19931;-70
2022/04/19 00:40:09;;;;;;;;;;;17.00;65.90;;;;;;2028904;28;19965;-70
2022/04/19 00:41:07;;;;;;;;;;;17.00;66.00;;;;;;2028815;28;19905;-70
2022/04/19 00:42:07;;;;;;;;;;;17.00;66.60;;;;;;2028729;28;19904;-70
2022/04/19 00:43:05;;;;;;;;;;;17.00;66.00;;;;;;2028729;28;20417;-70
2022/04/19 00:44:04;;;;;;;;;;;17.00;66.00;;;;;;2028906;28;19969;-70
2022/04/19 00:45:06;;;;;;;;;;;17.00;65.90;;;;;;2028760;28;20084;-71
2022/04/19 00:46:04;;;;;;;;;;;17.10;66.10;;;;;;2028688;28;19915;-70
2022/04/19 00:47:07;;;;;;;;;;;17.00;66.10;;;;;;2028778;28;19912;-70
2022/04/19 00:48:07;;;;;;;;;;;17.00;66.20;;;;;;2028100;28;19911;-70
2022/04/19 00:49:05;;;;;;;;;;;17.00;66.00;;;;;;2028217;28;20000;-70
2022/04/19 00:50:04;;;;;;;;;;;17.00;66.10;;;;;;2028809;28;19915;-70
2022/04/19 00:51:03;;;;;;;;;;;17.00;66.00;;;;;;2028648;28;19912;-71
2022/04/19 00:52:02;;;;;;;;;;;17.00;66.00;;;;;;2028074;28;19991;-71
2022/04/19 00:53:01;;;;;;;;;;;17.00;66.20;;;;;;2028103;28;19962;-69
2022/04/19 00:53:59;;;;;;;;;;;17.00;66.00;;;;;;2027962;28;19952;-69
2022/04/19 00:54:59;;;;;;;;;;;17.00;66.10;;;;;;2029632;28;19912;-69
2022/04/19 00:55:58;;;;;;;;;;;17.00;66.20;;;;;;2030236;28;19904;-69
2022/04/19 00:56:56;;;;;;;;;;;17.00;66.20;;;;;;2029517;28;19912;-69
2022/04/19 00:57:56;;;;;;;;;;;17.00;66.20;;;;;;2029743;28;19961;-70
2022/04/19 00:58:54;;;;;;;;;;;17.00;66.10;;;;;;2029268;28;19999;-70
2022/04/19 00:59:54;;;;;;;;;;;17.00;66.20;;;;;;2029768;28;19912;-70
2022/04/19 01:00:53;;;;;;;;;;;17.00;66.00;;;;;;2030588;28;20370;-70
2022/04/19 01:01:51;;;;;;;;;;;17.00;66.20;;;;;;2031320;28;19904;-69
2022/04/19 01:02:50;;;;;;;;;;;17.00;66.20;;;;;;2032845;28;20280;-70
2022/04/19 01:03:48;;;;;;;;;;;17.00;66.20;;;;;;2039858;28;19935;-70
2022/04/19 01:04:48;;;;;;;;;;;16.90;66.20;;;;;;2040149;28;19892;-70
2022/04/19 01:05:47;;;;;;;;;;;17.00;66.40;;;;;;2039926;28;19892;-70
2022/04/19 01:06:46;;;;;;;;;;;17.00;66.30;;;;;;2037377;28;19916;-70
2022/04/19 01:07:45;;;;;;;;;;;16.90;66.20;;;;;;2030269;28;19970;-70
2022/04/19 01:08:44;;;;;;;;;;;16.90;66.20;;;;;;2030237;28;20038;-72
2022/04/19 01:09:42;;;;;;;;;;;16.90;66.20;;;;;;2030771;28;19950;-71
2022/04/19 01:10:42;;;;;;;;;;;17.00;66.30;;;;;;2030146;28;19947;-70
2022/04/19 01:13:17;;;;;;;;;;;17.00;66.40;;;;;;2030253;28;19908;-70
2022/04/19 01:14:16;;;;;;;;;;;16.90;66.30;;;;;;2029458;28;19920;-70
2022/04/19 01:15:14;;;;;;;;;;;16.90;66.40;;;;;;2029493;28;19904;-70
2022/04/19 01:16:13;;;;;;;;;;;16.90;66.50;;;;;;2030047;28;19904;-70
2022/04/19 01:17:14;;;;;;;;;;;16.90;66.50;;;;;;2030096;28;20338;-71
2022/04/19 01:18:13;;;;;;;;;;;16.90;66.40;;;;;;2030132;28;19959;-69
2022/04/19 01:19:15;;;;;;;;;;;16.90;66.50;;;;;;2030313;28;19905;-70
2022/04/19 01:20:13;;;;;;;;;;;16.90;66.50;;;;;;2030266;28;20323;-69
2022/04/19 01:21:11;;;;;;;;;;;16.90;66.50;;;;;;2030168;28;19916;-70
2022/04/19 01:22:13;;;;;;;;;;;16.90;66.50;;;;;;2034871;28;19962;-70
2022/04/19 01:23:11;;;;;;;;;;;16.90;66.50;;;;;;2038297;28;19919;-70
2022/04/19 01:24:14;;;;;;;;;;;16.90;66.50;;;;;;2038529;28;19915;-70
2022/04/19 01:25:12;;;;;;;;;;;16.90;66.50;;;;;;2038514;28;19898;-69
2022/04/19 01:26:11;;;;;;;;;;;16.90;67.20;;;;;;2035070;28;19904;-69
2022/04/19 01:27:09;;;;;;;;;;;16.90;66.50;;;;;;2031235;28;20370;-70
2022/04/19 01:28:08;;;;;;;;;;;16.90;66.60;;;;;;2030548;28;19904;-70
2022/04/19 01:29:07;;;;;;;;;;;16.90;66.50;;;;;;2029756;28;19904;-70
2022/04/19 01:30:08;;;;;;;;;;;16.90;66.60;;;;;;2029585;28;20276;-70
2022/04/19 01:31:06;;;;;;;;;;;16.90;66.60;;;;;;2029998;28;20291;-69
2022/04/19 01:32:06;;;;;;;;;;;16.90;66.80;;;;;;2030054;28;19950;-70
2022/04/19 01:33:06;;;;;;;;;;;16.90;66.80;;;;;;2030160;28;19904;-70
2022/04/19 01:34:04;;;;;;;;;;;16.90;66.70;;;;;;2030060;28;20290;-69
2022/04/19 01:35:15;;;;;;;;;;;16.90;66.70;;;;;;2030133;28;19911;-69
2022/04/19 01:36:14;;;;;;;;;;;16.90;66.80;;;;;;2029760;28;20391;-70
2022/04/19 01:37:14;;;;;;;;;;;16.90;66.80;;;;;;2030055;28;19991;-70
2022/04/19 01:38:13;;;;;;;;;;;16.90;66.80;;;;;;2030042;28;20310;-70
2022/04/19 01:39:11;;;;;;;;;;;16.90;66.80;;;;;;2029875;28;19944;-70
2022/04/19 01:40:16;;;;;;;;;;;16.90;66.70;;;;;;2029988;28;19908;-70
2022/04/19 01:41:14;;;;;;;;;;;16.90;66.80;;;;;;2029968;28;19911;-70
2022/04/19 01:42:14;;;;;;;;;;;16.90;66.80;;;;;;2029920;28;20363;-71
2022/04/19 01:43:13;;;;;;;;;;;16.90;67.50;;;;;;2029312;28;19905;-70
2022/04/19 01:44:15;;;;;;;;;;;16.90;66.80;;;;;;2029338;28;19938;-70
2022/04/19 01:45:14;;;;;;;;;;;16.90;66.80;;;;;;2030136;28;20321;-70
2022/04/19 01:46:14;;;;;;;;;;;16.80;66.60;;;;;;2029069;28;19904;-70
2022/04/19 01:47:13;;;;;;;;;;;16.80;66.70;;;;;;2029213;28;19909;-69
2022/04/19 01:48:11;;;;;;;;;;;16.80;66.80;;;;;;2029599;28;19905;-69
2022/04/19 01:49:10;;;;;;;;;;;16.80;66.80;;;;;;2029772;28;19917;-69
2022/04/19 01:50:09;;;;;;;;;;;16.80;66.80;;;;;;2029177;28;19955;-69
2022/04/19 01:51:08;;;;;;;;;;;16.80;66.90;;;;;;2029231;28;19905;-69
2022/04/19 01:52:08;;;;;;;;;;;16.80;66.80;;;;;;2030072;28;19904;-70
2022/04/19 01:53:07;;;;;;;;;;;16.90;66.90;;;;;;2029829;28;20319;-70
2022/04/19 01:54:05;;;;;;;;;;;16.90;66.90;;;;;;2030010;28;19915;-70
2022/04/19 01:55:04;;;;;;;;;;;16.80;66.80;;;;;;2029710;28;19916;-70
2022/04/19 01:56:03;;;;;;;;;;;16.90;66.90;;;;;;2029852;28;19904;-70
2022/04/19 01:57:01;;;;;;;;;;;16.80;66.80;;;;;;2029758;28;19905;-70
2022/04/19 01:58:00;;;;;;;;;;;16.90;67.00;;;;;;2029846;28;19923;-70
2022/04/19 01:59:00;;;;;;;;;;;16.80;66.80;;;;;;2029888;28;20004;-70
2022/04/19 01:59:58;;;;;;;;;;;16.80;66.90;;;;;;2029763;28;20564;-70
2022/04/19 02:00:56;;;;;;;;;;;16.80;66.90;;;;;;2029822;28;19904;-69
2022/04/19 02:01:56;;;;;;;;;;;16.80;66.90;;;;;;2029700;28;19928;-70
2022/04/19 02:02:55;;;;;;;;;;;16.90;67.00;;;;;;2029929;28;19908;-69
2022/04/19 02:03:53;;;;;;;;;;;16.80;67.00;;;;;;2029764;28;19948;-69
2022/04/19 02:04:52;;;;;;;;;;;16.90;67.00;;;;;;2029509;28;19911;-70
2022/04/19 02:05:50;;;;;;;;;;;16.80;66.90;;;;;;2028750;28;20038;-69
2022/04/19 02:06:49;;;;;;;;;;;16.90;67.10;;;;;;2029775;28;19927;-69
2022/04/19 02:07:47;;;;;;;;;;;16.90;67.20;;;;;;2029852;28;20326;-69
2022/04/19 02:08:45;;;;;;;;;;;16.90;67.20;;;;;;2029870;28;19966;-70
2022/04/19 02:09:44;;;;;;;;;;;16.80;67.10;;;;;;2029686;28;19908;-69
2022/04/19 02:10:42;;;;;;;;;;;16.80;67.20;;;;;;2029726;28;19904;-69
2022/04/19 02:11:41;;;;;;;;;;;16.80;67.20;;;;;;2029784;28;19904;-70
2022/04/19 02:12:39;;;;;;;;;;;16.80;67.20;;;;;;2029469;28;20465;-69
2022/04/19 02:13:38;;;;;;;;;;;16.80;67.30;;;;;;2029562;28;19904;-69
2022/04/19 02:14:38;;;;;;;;;;;16.80;67.20;;;;;;2029791;28;19954;-70
2022/04/19 02:15:37;;;;;;;;;;;16.80;67.30;;;;;;2029943;28;19905;-71
2022/04/19 02:16:37;;;;;;;;;;;16.80;67.30;;;;;;2029598;28;20377;-70
2022/04/19 02:17:44;;;;;;;;;;;16.80;67.30;;;;;;2029737;28;19908;-70
2022/04/19 02:18:43;;;;;;;;;;;16.80;67.40;;;;;;2029645;28;19905;-70
2022/04/19 02:19:41;;;;;;;;;;;16.80;67.40;;;;;;2029938;28;19908;-70
2022/04/19 02:20:39;;;;;;;;;;;16.80;67.40;;;;;;2029711;28;19908;-69
2022/04/19 02:21:38;;;;;;;;;;;16.80;67.40;;;;;;2029705;28;19950;-70
2022/04/19 02:22:39;;;;;;;;;;;16.80;67.40;;;;;;2029684;28;19904;-70
2022/04/19 02:23:37;;;;;;;;;;;16.80;67.50;;;;;;2029639;28;20447;-70
2022/04/19 02:24:36;;;;;;;;;;;16.80;67.50;;;;;;2029432;28;19904;-70
2022/04/19 02:25:34;;;;;;;;;;;16.80;67.50;;;;;;2029570;28;19912;-70
2022/04/19 02:26:33;;;;;;;;;;;16.80;67.50;;;;;;2029552;28;19967;-71
2022/04/19 02:27:31;;;;;;;;;;;16.80;67.60;;;;;;2029723;28;19997;-71
2022/04/19 02:28:31;;;;;;;;;;;16.80;67.60;;;;;;2029458;28;20314;-72
2022/04/19 02:29:29;;;;;;;;;;;16.80;67.70;;;;;;2029571;28;19904;-71
2022/04/19 02:30:28;;;;;;;;;;;16.80;67.70;;;;;;2028800;28;19905;-72
2022/04/19 02:31:27;;;;;;;;;;;16.80;67.70;;;;;;2028929;28;20464;-70
2022/04/19 02:32:25;;;;;;;;;;;16.80;67.60;;;;;;2028362;28;19911;-71
2022/04/19 02:33:24;;;;;;;;;;;16.80;67.70;;;;;;2028986;28;19904;-71
2022/04/19 02:34:22;;;;;;;;;;;16.70;67.60;;;;;;2028277;28;19908;-69
2022/04/19 02:35:21;;;;;;;;;;;16.80;67.80;;;;;;2028898;28;19961;-70
2022/04/19 02:36:19;;;;;;;;;;;16.80;67.80;;;;;;2029418;28;20347;-69
2022/04/19 02:37:18;;;;;;;;;;;16.80;67.80;;;;;;2029476;28;20264;-70
2022/04/19 02:38:17;;;;;;;;;;;16.80;67.80;;;;;;2029588;28;20307;-69
2022/04/19 02:39:15;;;;;;;;;;;16.80;67.80;;;;;;2029493;28;19904;-69
2022/04/19 02:40:14;;;;;;;;;;;16.80;67.90;;;;;;2029501;28;19904;-70
2022/04/19 02:41:12;;;;;;;;;;;16.80;67.80;;;;;;2029468;28;19958;-70
2022/04/19 02:42:10;;;;;;;;;;;16.80;67.90;;;;;;2029500;28;19958;-72
2022/04/19 02:43:09;;;;;;;;;;;16.80;67.90;;;;;;2029379;28;19950;-70
2022/04/19 02:44:08;;;;;;;;;;;16.70;67.80;;;;;;2029325;28;19905;-70
2022/04/19 02:45:06;;;;;;;;;;;16.80;67.90;;;;;;2029394;28;19926;-70
2022/04/19 02:46:05;;;;;;;;;;;16.80;68.00;;;;;;2029171;28;19912;-70
2022/04/19 02:47:05;;;;;;;;;;;16.70;67.90;;;;;;2028519;28;19911;-69
2022/04/19 02:48:04;;;;;;;;;;;16.80;68.10;;;;;;2028965;28;19904;-70
2022/04/19 02:49:05;;;;;;;;;;;16.70;68.00;;;;;;2028703;28;19905;-70
2022/04/19 02:50:05;;;;;;;;;;;16.80;68.80;;;;;;2028639;28;19904;-69
2022/04/19 02:51:05;;;;;;;;;;;16.80;68.20;;;;;;2029428;28;19950;-69
2022/04/19 02:52:04;;;;;;;;;;;16.70;68.00;;;;;;2029396;28;19904;-69
2022/04/19 02:53:03;;;;;;;;;;;16.70;68.10;;;;;;2029443;28;20305;-71
2022/04/19 02:54:02;;;;;;;;;;;16.70;68.10;;;;;;2029437;28;19909;-70
2022/04/19 02:55:00;;;;;;;;;;;16.70;68.10;;;;;;2029307;28;20366;-70
2022/04/19 02:55:59;;;;;;;;;;;16.70;68.10;;;;;;2029249;28;20446;-70
2022/04/19 02:56:58;;;;;;;;;;;16.80;68.30;;;;;;2029345;28;19905;-70
2022/04/19 02:57:56;;;;;;;;;;;16.70;68.20;;;;;;2029541;28;19904;-70
2022/04/19 02:58:54;;;;;;;;;;;16.70;68.20;;;;;;2029390;28;19905;-70
2022/04/19 02:59:53;;;;;;;;;;;16.70;68.20;;;;;;2029277;28;20374;-70
2022/04/19 03:00:52;;;;;;;;;;;16.70;68.20;;;;;;2029399;28;19911;-69
2022/04/19 03:01:50;;;;;;;;;;;16.70;68.20;;;;;;2029275;28;19955;-70
2022/04/19 03:02:49;;;;;;;;;;;16.70;68.20;;;;;;2029374;28;19904;-71
2022/04/19 03:03:48;;;;;;;;;;;16.70;68.20;;;;;;2029357;28;19920;-70
2022/04/19 03:04:46;;;;;;;;;;;16.70;68.30;;;;;;2029302;28;20382;-70
2022/04/19 03:05:45;;;;;;;;;;;16.70;68.40;;;;;;2029324;28;20005;-70
2022/04/19 03:06:43;;;;;;;;;;;16.70;68.40;;;;;;2029346;28;19950;-70
2022/04/19 03:07:42;;;;;;;;;;;16.70;68.40;;;;;;2028719;28;19909;-70
2022/04/19 03:08:40;;;;;;;;;;;16.70;68.40;;;;;;2028684;28;19908;-70
2022/04/19 03:09:38;;;;;;;;;;;16.70;68.40;;;;;;2028925;28;19905;-69
2022/04/19 03:10:37;;;;;;;;;;;16.70;68.40;;;;;;2029146;28;19905;-70
2022/04/19 03:11:36;;;;;;;;;;;16.70;68.40;;;;;;2029293;28;19927;-70
2022/04/19 03:12:35;;;;;;;;;;;16.70;68.50;;;;;;2029295;28;19909;-70
2022/04/19 03:13:33;;;;;;;;;;;16.70;68.50;;;;;;2029240;28;19904;-70
2022/04/19 03:14:32;;;;;;;;;;;16.70;68.50;;;;;;2028693;28;20402;-70
2022/04/19 03:15:34;;;;;;;;;;;16.70;68.50;;;;;;2028705;28;20407;-70
2022/04/19 03:16:33;;;;;;;;;;;16.70;68.60;;;;;;2028851;28;19904;-70
2022/04/19 03:17:31;;;;;;;;;;;16.70;68.50;;;;;;2029134;28;19904;-70
2022/04/19 03:18:32;;;;;;;;;;;16.60;68.50;;;;;;2028404;28;19925;-70
2022/04/19 03:19:31;;;;;;;;;;;16.70;68.60;;;;;;2028614;28;20252;-70
2022/04/19 03:20:29;;;;;;;;;;;16.70;68.60;;;;;;2029215;28;19911;-71
2022/04/19 03:21:28;;;;;;;;;;;16.70;68.60;;;;;;2028505;28;19904;-70
2022/04/19 03:27:41;;;;;;;;;;;16.70;68.60;;;;;;2028624;28;19954;-70
2022/04/19 03:27:43;;;;;;;;;;;16.70;68.70;;;;;;2029256;28;20321;-70
2022/04/19 03:28:42;;;;;;;;;;;16.60;68.60;;;;;;2029164;28;20379;-70
2022/04/19 03:29:40;;;;;;;;;;;16.70;68.70;;;;;;2029191;28;19931;-70
2022/04/19 03:30:39;;;;;;;;;;;16.60;68.60;;;;;;2029159;28;19915;-70
2022/04/19 03:31:38;;;;;;;;;;;16.70;68.70;;;;;;2029242;28;20300;-71
2022/04/19 03:32:36;;;;;;;;;;;16.60;68.60;;;;;;2029098;28;19995;-70
2022/04/19 03:33:38;;;;;;;;;;;16.70;68.70;;;;;;2029218;28;19904;-71
2022/04/19 03:34:37;;;;;;;;;;;16.70;68.60;;;;;;2029079;28;19911;-70
2022/04/19 03:35:36;;;;;;;;;;;16.70;68.70;;;;;;2029091;28;20042;-70
2022/04/19 03:36:35;;;;;;;;;;;16.70;68.70;;;;;;2029047;28;20381;-70
2022/04/19 03:37:33;;;;;;;;;;;16.70;68.80;;;;;;2028956;28;19904;-70
2022/04/19 03:38:32;;;;;;;;;;;16.60;68.70;;;;;;2020376;28;19952;-70
2022/04/19 03:39:30;;;;;;;;;;;16.60;68.60;;;;;;2020576;28;19955;-70
2022/04/19 03:40:29;;;;;;;;;;;16.70;68.80;;;;;;2028574;28;19904;-70
2022/04/19 03:41:27;;;;;;;;;;;16.60;68.70;;;;;;2029000;28;20370;-70
2022/04/19 03:42:25;;;;;;;;;;;16.60;68.70;;;;;;2029087;28;19933;-70
2022/04/19 03:43:25;;;;;;;;;;;16.60;68.70;;;;;;2028989;28;19920;-70
2022/04/19 03:44:25;;;;;;;;;;;16.70;68.80;;;;;;2029038;28;20344;-70
2022/04/19 03:45:24;;;;;;;;;;;16.60;68.70;;;;;;2029096;28;20386;-70
2022/04/19 03:46:22;;;;;;;;;;;16.60;68.70;;;;;;2028196;28;19909;-70
2022/04/19 03:47:20;;;;;;;;;;;16.60;68.90;;;;;;2028620;28;19924;-70
2022/04/19 03:48:19;;;;;;;;;;;16.60;68.80;;;;;;2028990;28;20355;-69
2022/04/19 03:49:17;;;;;;;;;;;16.60;68.80;;;;;;2029091;28;19947;-70
2022/04/19 03:50:16;;;;;;;;;;;16.60;68.80;;;;;;2028882;28;19974;-70
2022/04/19 03:51:15;;;;;;;;;;;16.60;68.90;;;;;;2028416;28;19905;-70
2022/04/19 03:52:14;;;;;;;;;;;16.60;68.90;;;;;;2028381;28;19905;-70
2022/04/19 03:53:12;;;;;;;;;;;16.60;68.90;;;;;;2028904;28;19904;-70
2022/04/19 03:54:11;;;;;;;;;;;16.60;68.90;;;;;;2029088;28;19908;-70
2022/04/19 03:55:09;;;;;;;;;;;16.60;68.90;;;;;;2028936;28;19958;-70
2022/04/19 03:56:08;;;;;;;;;;;16.60;68.90;;;;;;2029192;28;20014;-70
2022/04/19 03:57:08;;;;;;;;;;;16.60;69.00;;;;;;2029112;28;19911;-69
2022/04/19 03:58:07;;;;;;;;;;;16.60;69.00;;;;;;2029480;28;19958;-69
2022/04/19 03:59:06;;;;;;;;;;;16.60;69.00;;;;;;2029456;28;19904;-70
2022/04/19 04:00:06;;;;;;;;;;;16.80;69.10;;;;;;2037069;28;19892;-69
2022/04/19 04:01:05;;;;;;;;;;;16.60;69.00;;;;;;2037987;28;19942;-71
2022/04/19 04:02:04;;;;;;;;;;;16.60;69.10;;;;;;2037973;28;19893;-69
2022/04/19 04:03:02;;;;;;;;;;;16.60;69.10;;;;;;2038360;28;19928;-69
2022/04/19 04:04:01;;;;;;;;;;;16.60;69.10;;;;;;2030655;28;20309;-69
2022/04/19 04:04:59;;;;;;;;;;;16.60;69.00;;;;;;2028953;28;20363;-70
2022/04/19 04:05:57;;;;;;;;;;;16.60;69.20;;;;;;2029072;28;19905;-69
2022/04/19 04:06:59;;;;;;;;;;;16.60;69.10;;;;;;2028774;28;19912;-70
2022/04/19 04:07:58;;;;;;;;;;;16.60;69.10;;;;;;2028929;28;19958;-69
2022/04/19 04:08:56;;;;;;;;;;;16.60;69.10;;;;;;2033202;28;19927;-69
2022/04/19 04:09:55;;;;;;;;;;;16.60;69.10;;;;;;2036165;28;19905;-69
2022/04/19 04:10:54;;;;;;;;;;;16.60;69.20;;;;;;2035983;28;19931;-70
2022/04/19 04:11:52;;;;;;;;;;;16.60;69.20;;;;;;2037032;28;19958;-69
2022/04/19 04:12:51;;;;;;;;;;;16.60;69.10;;;;;;2035374;28;19991;-70
2022/04/19 04:13:49;;;;;;;;;;;16.60;69.20;;;;;;2034002;28;19931;-70
2022/04/19 04:14:47;;;;;;;;;;;16.60;69.20;;;;;;2029605;28;20374;-70
2022/04/19 04:15:46;;;;;;;;;;;16.60;69.20;;;;;;2029209;28;19954;-70
2022/04/19 04:16:44;;;;;;;;;;;16.60;69.20;;;;;;2028486;28;19908;-70
2022/04/19 04:17:43;;;;;;;;;;;16.60;69.30;;;;;;2030013;28;19904;-70
2022/04/19 04:18:41;;;;;;;;;;;16.60;69.20;;;;;;2030453;28;19958;-70
2022/04/19 04:19:40;;;;;;;;;;;16.60;70.00;;;;;;2028936;28;20208;-69
2022/04/19 04:20:38;;;;;;;;;;;16.60;70.00;;;;;;2028327;28;19904;-70
2022/04/19 04:21:37;;;;;;;;;;;16.60;69.40;;;;;;2028371;28;20307;-69
2022/04/19 04:22:35;;;;;;;;;;;16.60;69.30;;;;;;2028762;28;20354;-70
2022/04/19 04:23:34;;;;;;;;;;;16.60;69.40;;;;;;2028776;28;19911;-69
2022/04/19 04:24:32;;;;;;;;;;;16.60;69.40;;;;;;2028929;28;19911;-69
2022/04/19 04:25:32;;;;;;;;;;;16.60;69.40;;;;;;2028178;28;19908;-70
2022/04/19 04:26:30;;;;;;;;;;;16.60;69.40;;;;;;2028234;28;19944;-70
2022/04/19 04:27:29;;;;;;;;;;;16.60;69.40;;;;;;2028360;28;19904;-70
2022/04/19 04:28:27;;;;;;;;;;;16.60;69.40;;;;;;2028220;28;20270;-70
2022/04/19 04:29:25;;;;;;;;;;;16.60;69.40;;;;;;2028470;28;19905;-69
2022/04/19 04:30:25;;;;;;;;;;;16.60;69.40;;;;;;2028744;28;20263;-70
2022/04/19 04:31:23;;;;;;;;;;;16.60;69.50;;;;;;2028781;28;20204;-70
2022/04/19 04:32:22;;;;;;;;;;;16.60;69.40;;;;;;2028729;28;19911;-69
2022/04/19 04:33:21;;;;;;;;;;;16.60;69.40;;;;;;2028606;28;19915;-71
2022/04/19 04:34:20;;;;;;;;;;;16.60;69.40;;;;;;2028738;28;19909;-70
2022/04/19 04:35:19;;;;;;;;;;;16.60;69.50;;;;;;2028070;28;19904;-70
2022/04/19 04:36:19;;;;;;;;;;;16.60;69.50;;;;;;2028079;28;19910;-70
2022/04/19 04:37:17;;;;;;;;;;;16.60;69.40;;;;;;2028737;28;19969;-70
2022/04/19 04:38:16;;;;;;;;;;;16.60;69.50;;;;;;2028732;28;19984;-70
2022/04/19 04:39:14;;;;;;;;;;;16.60;69.40;;;;;;2028946;28;19905;-70
2022/04/19 04:40:13;;;;;;;;;;;16.60;69.50;;;;;;2028656;28;19904;-70
2022/04/19 04:41:11;;;;;;;;;;;16.60;69.40;;;;;;2028650;28;19905;-70
2022/04/19 04:42:10;;;;;;;;;;;16.60;69.50;;;;;;2028658;28;19984;-69
2022/04/19 04:43:08;;;;;;;;;;;16.60;69.50;;;;;;2028749;28;19920;-70
2022/04/19 04:44:06;;;;;;;;;;;16.60;69.50;;;;;;2028605;28;19969;-70
2022/04/19 04:45:05;;;;;;;;;;;16.60;69.50;;;;;;2028868;28;19904;-70
2022/04/19 04:49:55;;;;;;;;;;;16.60;69.70;;;;;;2028722;28;20352;-71
2022/04/19 04:50:54;;;;;;;;;;;16.50;69.60;;;;;;2028772;28;20003;-71
2022/04/19 04:51:52;;;;;;;;;;;16.50;69.60;;;;;;2028730;28;19904;-69
2022/04/19 04:52:52;;;;;;;;;;;16.50;69.50;;;;;;2028689;28;19908;-70
2022/04/19 04:53:50;;;;;;;;;;;16.50;69.60;;;;;;2028604;28;19969;-70
2022/04/19 04:54:49;;;;;;;;;;;16.50;69.50;;;;;;2028495;28;19931;-69
2022/04/19 04:55:47;;;;;;;;;;;16.50;69.60;;;;;;2028700;28;20413;-70
2022/04/19 04:56:46;;;;;;;;;;;16.50;70.20;;;;;;2028581;28;19905;-69
2022/04/19 04:57:44;;;;;;;;;;;16.60;69.60;;;;;;2028666;28;19905;-70
2022/04/19 04:58:43;;;;;;;;;;;16.60;69.70;;;;;;2028644;28;19912;-71
2022/04/19 04:59:41;;;;;;;;;;;16.60;69.60;;;;;;2028657;28;19926;-69
2022/04/19 05:00:39;;;;;;;;;;;16.60;69.60;;;;;;2028780;28;20267;-70
2022/04/19 05:01:38;;;;;;;;;;;16.50;69.50;;;;;;2028539;28;19930;-70
2022/04/19 05:02:36;;;;;;;;;;;16.60;69.70;;;;;;2028563;28;20002;-70
2022/04/19 05:03:36;;;;;;;;;;;16.60;69.70;;;;;;2028634;28;19931;-70
2022/04/19 05:04:35;;;;;;;;;;;16.60;69.60;;;;;;2028666;28;19954;-70
2022/04/19 05:05:34;;;;;;;;;;;16.50;69.60;;;;;;2028675;28;19993;-70
2022/04/19 05:06:32;;;;;;;;;;;16.60;69.70;;;;;;2028526;28;19904;-70
2022/04/19 05:07:31;;;;;;;;;;;16.60;69.70;;;;;;2028776;28;19912;-69
2022/04/19 05:08:29;;;;;;;;;;;16.60;69.60;;;;;;2028589;28;19904;-70
2022/04/19 05:09:28;;;;;;;;;;;16.60;69.60;;;;;;2028580;28;19905;-69
2022/04/19 05:10:26;;;;;;;;;;;16.50;69.60;;;;;;2028531;28;20399;-69
2022/04/19 05:11:24;;;;;;;;;;;16.50;69.60;;;;;;2028622;28;19904;-69
2022/04/19 05:12:23;;;;;;;;;;;16.60;69.70;;;;;;2028602;28;19991;-69
2022/04/19 05:13:21;;;;;;;;;;;16.60;69.60;;;;;;2028506;28;19978;-69
2022/04/19 05:14:20;;;;;;;;;;;16.50;69.60;;;;;;2028611;28;19909;-70
2022/04/19 05:15:19;;;;;;;;;;;16.50;69.60;;;;;;2028705;28;19905;-70
2022/04/19 05:16:18;;;;;;;;;;;16.50;69.60;;;;;;2028583;28;19912;-70
2022/04/19 05:17:16;;;;;;;;;;;16.60;69.70;;;;;;2028513;28;19912;-70
2022/04/19 05:18:15;;;;;;;;;;;16.60;69.70;;;;;;2028754;28;19908;-69
2022/04/19 05:19:13;;;;;;;;;;;16.60;69.70;;;;;;2028645;28;19904;-69
2022/04/19 05:20:12;;;;;;;;;;;16.60;69.60;;;;;;2028501;28;20344;-70
2022/04/19 05:21:10;;;;;;;;;;;16.60;69.60;;;;;;2027784;28;19908;-69
2022/04/19 05:22:09;;;;;;;;;;;16.60;69.60;;;;;;2028012;28;19948;-70
2022/04/19 05:23:07;;;;;;;;;;;16.60;69.70;;;;;;2028567;28;20318;-69
2022/04/19 05:24:06;;;;;;;;;;;16.60;69.70;;;;;;2028495;28;19999;-69
2022/04/19 05:25:05;;;;;;;;;;;16.60;69.70;;;;;;2028649;28;19908;-70
2022/04/19 05:26:03;;;;;;;;;;;16.60;69.70;;;;;;2028502;28;19980;-70
2022/04/19 05:27:02;;;;;;;;;;;16.60;69.80;;;;;;2028172;28;19958;-70
2022/04/19 05:28:00;;;;;;;;;;;16.60;69.80;;;;;;2028524;28;19988;-70
2022/04/19 05:28:59;;;;;;;;;;;16.60;69.90;;;;;;2028460;28;19954;-70
2022/04/19 05:29:57;;;;;;;;;;;16.60;69.80;;;;;;2028561;28;19966;-71
2022/04/19 05:30:56;;;;;;;;;;;16.60;69.80;;;;;;2028401;28;19990;-70
2022/04/19 05:31:54;;;;;;;;;;;16.60;69.90;;;;;;2028696;28;19905;-69
2022/04/19 05:32:53;;;;;;;;;;;16.60;70.00;;;;;;2028287;28;19958;-70
2022/04/19 05:33:52;;;;;;;;;;;16.60;70.00;;;;;;2028506;28;19904;-70
2022/04/19 05:34:50;;;;;;;;;;;16.60;70.00;;;;;;2027861;28;19961;-69
2022/04/19 05:35:49;;;;;;;;;;;16.60;70.00;;;;;;2027979;28;19904;-70
2022/04/19 05:36:47;;;;;;;;;;;16.60;70.00;;;;;;2028510;28;19911;-69
2022/04/19 05:37:46;;;;;;;;;;;16.60;70.00;;;;;;2028480;28;19904;-69
2022/04/19 05:38:44;;;;;;;;;;;16.60;70.00;;;;;;2028553;28;19965;-69
2022/04/19 05:39:43;;;;;;;;;;;16.60;70.10;;;;;;2028574;28;19911;-69
2022/04/19 05:40:41;;;;;;;;;;;16.60;70.10;;;;;;2029855;28;19911;-70
2022/04/19 05:41:40;;;;;;;;;;;16.60;70.10;;;;;;2029842;28;19911;-69
2022/04/19 05:42:38;;;;;;;;;;;16.60;70.20;;;;;;2029821;28;19949;-70
2022/04/19 05:43:37;;;;;;;;;;;16.60;70.20;;;;;;2029236;28;19905;-69
2022/04/19 05:44:37;;;;;;;;;;;16.60;70.10;;;;;;2029279;28;20342;-70
2022/04/19 05:45:36;;;;;;;;;;;16.60;70.20;;;;;;2029840;28;19908;-70
2022/04/19 05:46:36;;;;;;;;;;;16.60;70.80;;;;;;2029907;28;20353;-70
2022/04/19 05:47:34;;;;;;;;;;;16.60;70.20;;;;;;2029933;28;19904;-70
2022/04/19 05:48:32;;;;;;;;;;;16.70;70.20;;;;;;2029852;28;19910;-71
2022/04/19 05:49:31;;;;;;;;;;;16.60;70.20;;;;;;2029987;28;19961;-70
2022/04/19 05:50:29;;;;;;;;;;;16.70;70.20;;;;;;2029936;28;20193;-71
2022/04/19 05:51:28;;;;;;;;;;;16.60;70.10;;;;;;2029938;28;19957;-71